sensor_id;sensor_type;location;lat;lon;timestamp;P1;durP1;ratioP1;P2;durP2;ratioP2
19509;SDS011;9896;42.486;26.506;2023-08-24T00:00:40;9.70;;;8.20;;
19509;SDS011;9896;42.486;26.506;2023-08-24T00:03:06;14.50;;;12.60;;
19509;SDS011;9896;42.486;26.506;2023-08-24T00:05:34;9.50;;;7.70;;
19509;SDS011;9896;42.486;26.506;2023-08-24T00:08:04;9.77;;;8.43;;
19509;SDS011;9896;42.486;26.506;2023-08-24T00:10:30;12.37;;;8.60;;
19509;SDS011;9896;42.486;26.506;2023-08-24T00:12:55;11.43;;;8.70;;
19509;SDS011;9896;42.486;26.506;2023-08-24T00:15:21;9.87;;;8.03;;
19509;SDS011;9896;42.486;26.506;2023-08-24T00:17:46;11.37;;;8.30;;
19509;SDS011;9896;42.486;26.506;2023-08-24T00:20:12;9.77;;;7.93;;
19509;SDS011;9896;42.486;26.506;2023-08-24T00:22:38;11.10;;;8.63;;
19509;SDS011;9896;42.486;26.506;2023-08-24T00:25:04;9.97;;;8.67;;
19509;SDS011;9896;42.486;26.506;2023-08-24T00:27:30;9.90;;;8.23;;
19509;SDS011;9896;42.486;26.506;2023-08-24T00:29:56;9.77;;;8.63;;
19509;SDS011;9896;42.486;26.506;2023-08-24T00:32:22;8.77;;;7.50;;
19509;SDS011;9896;42.486;26.506;2023-08-24T00:34:47;10.40;;;8.20;;
19509;SDS011;9896;42.486;26.506;2023-08-24T00:37:13;11.67;;;9.10;;
19509;SDS011;9896;42.486;26.506;2023-08-24T00:39:38;10.00;;;8.20;;
19509;SDS011;9896;42.486;26.506;2023-08-24T00:42:04;11.73;;;8.63;;
19509;SDS011;9896;42.486;26.506;2023-08-24T00:44:30;10.03;;;7.73;;
19509;SDS011;9896;42.486;26.506;2023-08-24T00:46:56;11.20;;;7.73;;
19509;SDS011;9896;42.486;26.506;2023-08-24T00:49:22;12.50;;;8.50;;
19509;SDS011;9896;42.486;26.506;2023-08-24T00:51:48;11.47;;;7.70;;
19509;SDS011;9896;42.486;26.506;2023-08-24T00:54:13;9.30;;;7.90;;
19509;SDS011;9896;42.486;26.506;2023-08-24T00:56:39;9.77;;;7.63;;
19509;SDS011;9896;42.486;26.506;2023-08-24T00:59:04;12.07;;;8.40;;
19509;SDS011;9896;42.486;26.506;2023-08-24T01:01:30;9.87;;;7.97;;
19509;SDS011;9896;42.486;26.506;2023-08-24T01:03:55;8.90;;;7.40;;
19509;SDS011;9896;42.486;26.506;2023-08-24T01:06:20;9.13;;;7.53;;
19509;SDS011;9896;42.486;26.506;2023-08-24T01:08:46;12.40;;;8.17;;
19509;SDS011;9896;42.486;26.506;2023-08-24T01:13:50;10.33;;;7.90;;
19509;SDS011;9896;42.486;26.506;2023-08-24T01:16:19;9.83;;;7.97;;
19509;SDS011;9896;42.486;26.506;2023-08-24T01:18:46;11.37;;;7.97;;
19509;SDS011;9896;42.486;26.506;2023-08-24T01:21:12;11.47;;;8.23;;
19509;SDS011;9896;42.486;26.506;2023-08-24T01:26:22;9.23;;;8.00;;
19509;SDS011;9896;42.486;26.506;2023-08-24T01:28:47;9.57;;;8.17;;
19509;SDS011;9896;42.486;26.506;2023-08-24T01:31:13;10.27;;;8.00;;
19509;SDS011;9896;42.486;26.506;2023-08-24T01:33:39;12.17;;;8.97;;
19509;SDS011;9896;42.486;26.506;2023-08-24T01:36:05;9.93;;;8.00;;
19509;SDS011;9896;42.486;26.506;2023-08-24T01:38:30;12.73;;;8.83;;
19509;SDS011;9896;42.486;26.506;2023-08-24T01:43:21;10.60;;;8.50;;
19509;SDS011;9896;42.486;26.506;2023-08-24T01:45:50;12.37;;;9.13;;
19509;SDS011;9896;42.486;26.506;2023-08-24T01:48:16;14.77;;;9.60;;
19509;SDS011;9896;42.486;26.506;2023-08-24T01:50:42;9.70;;;8.13;;
19509;SDS011;9896;42.486;26.506;2023-08-24T01:53:08;11.40;;;9.00;;
19509;SDS011;9896;42.486;26.506;2023-08-24T01:55:33;13.77;;;9.00;;
19509;SDS011;9896;42.486;26.506;2023-08-24T01:57:59;12.53;;;9.13;;
19509;SDS011;9896;42.486;26.506;2023-08-24T02:00:25;11.10;;;9.90;;
19509;SDS011;9896;42.486;26.506;2023-08-24T02:02:50;11.53;;;9.70;;
19509;SDS011;9896;42.486;26.506;2023-08-24T02:05:16;12.67;;;9.63;;
19509;SDS011;9896;42.486;26.506;2023-08-24T02:07:41;11.37;;;9.57;;
19509;SDS011;9896;42.486;26.506;2023-08-24T02:10:07;11.03;;;9.07;;
19509;SDS011;9896;42.486;26.506;2023-08-24T02:12:32;12.90;;;9.33;;
19509;SDS011;9896;42.486;26.506;2023-08-24T02:14:58;13.80;;;9.87;;
19509;SDS011;9896;42.486;26.506;2023-08-24T02:17:23;13.73;;;9.37;;
19509;SDS011;9896;42.486;26.506;2023-08-24T02:19:49;10.87;;;9.00;;
19509;SDS011;9896;42.486;26.506;2023-08-24T02:22:14;10.60;;;8.57;;
19509;SDS011;9896;42.486;26.506;2023-08-24T02:24:40;14.37;;;9.57;;
19509;SDS011;9896;42.486;26.506;2023-08-24T02:27:05;12.87;;;9.47;;
19509;SDS011;9896;42.486;26.506;2023-08-24T02:29:30;10.90;;;9.27;;
19509;SDS011;9896;42.486;26.506;2023-08-24T02:31:56;12.77;;;9.60;;
19509;SDS011;9896;42.486;26.506;2023-08-24T02:34:21;12.50;;;9.90;;
19509;SDS011;9896;42.486;26.506;2023-08-24T02:36:47;15.23;;;9.43;;
19509;SDS011;9896;42.486;26.506;2023-08-24T02:39:12;12.00;;;9.50;;
19509;SDS011;9896;42.486;26.506;2023-08-24T02:41:38;13.73;;;8.93;;
19509;SDS011;9896;42.486;26.506;2023-08-24T02:44:03;11.37;;;8.63;;
19509;SDS011;9896;42.486;26.506;2023-08-24T02:46:29;14.47;;;8.97;;
19509;SDS011;9896;42.486;26.506;2023-08-24T02:48:55;10.33;;;8.40;;
19509;SDS011;9896;42.486;26.506;2023-08-24T02:51:21;12.73;;;9.53;;
19509;SDS011;9896;42.486;26.506;2023-08-24T02:53:46;12.13;;;10.10;;
19509;SDS011;9896;42.486;26.506;2023-08-24T02:56:11;10.87;;;9.30;;
19509;SDS011;9896;42.486;26.506;2023-08-24T02:58:38;11.23;;;9.50;;
19509;SDS011;9896;42.486;26.506;2023-08-24T03:01:06;14.30;;;9.80;;
19509;SDS011;9896;42.486;26.506;2023-08-24T03:03:32;12.53;;;9.23;;
19509;SDS011;9896;42.486;26.506;2023-08-24T03:06:00;13.93;;;8.60;;
19509;SDS011;9896;42.486;26.506;2023-08-24T03:08:25;11.03;;;9.80;;
19509;SDS011;9896;42.486;26.506;2023-08-24T03:10:51;11.73;;;9.23;;
19509;SDS011;9896;42.486;26.506;2023-08-24T03:13:17;11.73;;;9.80;;
19509;SDS011;9896;42.486;26.506;2023-08-24T03:15:42;13.27;;;9.60;;
19509;SDS011;9896;42.486;26.506;2023-08-24T03:18:09;11.30;;;9.50;;
19509;SDS011;9896;42.486;26.506;2023-08-24T03:20:35;11.83;;;9.53;;
19509;SDS011;9896;42.486;26.506;2023-08-24T03:23:00;11.80;;;9.30;;
19509;SDS011;9896;42.486;26.506;2023-08-24T03:25:25;12.17;;;9.40;;
19509;SDS011;9896;42.486;26.506;2023-08-24T03:27:51;12.43;;;10.03;;
19509;SDS011;9896;42.486;26.506;2023-08-24T03:30:17;11.07;;;9.53;;
19509;SDS011;9896;42.486;26.506;2023-08-24T03:32:42;14.90;;;10.03;;
19509;SDS011;9896;42.486;26.506;2023-08-24T03:35:08;12.90;;;10.47;;
19509;SDS011;9896;42.486;26.506;2023-08-24T03:37:33;16.27;;;10.00;;
19509;SDS011;9896;42.486;26.506;2023-08-24T03:39:59;14.43;;;9.87;;
19509;SDS011;9896;42.486;26.506;2023-08-24T03:42:24;15.13;;;10.43;;
19509;SDS011;9896;42.486;26.506;2023-08-24T03:44:49;13.30;;;10.10;;
19509;SDS011;9896;42.486;26.506;2023-08-24T03:47:15;12.63;;;10.37;;
19509;SDS011;9896;42.486;26.506;2023-08-24T03:49:43;13.63;;;10.00;;
19509;SDS011;9896;42.486;26.506;2023-08-24T03:52:09;13.43;;;10.63;;
19509;SDS011;9896;42.486;26.506;2023-08-24T03:54:35;18.40;;;11.23;;
19509;SDS011;9896;42.486;26.506;2023-08-24T03:57:01;12.10;;;10.23;;
19509;SDS011;9896;42.486;26.506;2023-08-24T03:59:26;12.57;;;10.13;;
19509;SDS011;9896;42.486;26.506;2023-08-24T04:01:51;13.33;;;9.87;;
19509;SDS011;9896;42.486;26.506;2023-08-24T04:04:17;12.07;;;9.73;;
19509;SDS011;9896;42.486;26.506;2023-08-24T04:06:42;13.47;;;10.00;;
19509;SDS011;9896;42.486;26.506;2023-08-24T04:09:08;12.27;;;10.17;;
19509;SDS011;9896;42.486;26.506;2023-08-24T04:11:34;13.60;;;10.17;;
19509;SDS011;9896;42.486;26.506;2023-08-24T04:13:59;12.07;;;10.43;;
19509;SDS011;9896;42.486;26.506;2023-08-24T04:16:25;13.87;;;10.30;;
19509;SDS011;9896;42.486;26.506;2023-08-24T04:18:50;13.70;;;10.10;;
19509;SDS011;9896;42.486;26.506;2023-08-24T04:21:16;20.13;;;10.73;;
19509;SDS011;9896;42.486;26.506;2023-08-24T04:23:41;12.47;;;10.03;;
19509;SDS011;9896;42.486;26.506;2023-08-24T04:26:10;13.73;;;9.83;;
19509;SDS011;9896;42.486;26.506;2023-08-24T04:28:36;13.30;;;9.80;;
19509;SDS011;9896;42.486;26.506;2023-08-24T04:31:01;13.60;;;9.67;;
19509;SDS011;9896;42.486;26.506;2023-08-24T04:33:27;17.17;;;10.70;;
19509;SDS011;9896;42.486;26.506;2023-08-24T04:35:52;11.70;;;10.03;;
19509;SDS011;9896;42.486;26.506;2023-08-24T04:38:17;14.57;;;10.23;;
19509;SDS011;9896;42.486;26.506;2023-08-24T04:40:50;14.90;;;9.30;;
19509;SDS011;9896;42.486;26.506;2023-08-24T04:43:16;13.27;;;10.13;;
19509;SDS011;9896;42.486;26.506;2023-08-24T04:45:41;11.97;;;10.03;;
19509;SDS011;9896;42.486;26.506;2023-08-24T04:48:07;12.27;;;10.03;;
19509;SDS011;9896;42.486;26.506;2023-08-24T04:50:32;13.87;;;10.30;;
19509;SDS011;9896;42.486;26.506;2023-08-24T04:52:57;16.43;;;9.80;;
19509;SDS011;9896;42.486;26.506;2023-08-24T04:55:23;15.50;;;10.07;;
19509;SDS011;9896;42.486;26.506;2023-08-24T04:57:48;19.63;;;10.30;;
19509;SDS011;9896;42.486;26.506;2023-08-24T05:00:14;12.03;;;9.20;;
19509;SDS011;9896;42.486;26.506;2023-08-24T05:02:42;11.60;;;9.63;;
19509;SDS011;9896;42.486;26.506;2023-08-24T05:05:07;13.83;;;10.20;;
19509;SDS011;9896;42.486;26.506;2023-08-24T05:07:35;13.77;;;9.57;;
19509;SDS011;9896;42.486;26.506;2023-08-24T05:10:00;12.50;;;9.67;;
19509;SDS011;9896;42.486;26.506;2023-08-24T05:12:26;13.07;;;9.67;;
19509;SDS011;9896;42.486;26.506;2023-08-24T05:14:51;19.07;;;10.20;;
19509;SDS011;9896;42.486;26.506;2023-08-24T05:17:16;19.80;;;11.13;;
19509;SDS011;9896;42.486;26.506;2023-08-24T05:19:42;15.43;;;10.13;;
19509;SDS011;9896;42.486;26.506;2023-08-24T05:22:07;15.43;;;10.23;;
19509;SDS011;9896;42.486;26.506;2023-08-24T05:24:33;15.30;;;10.50;;
19509;SDS011;9896;42.486;26.506;2023-08-24T05:26:58;12.00;;;9.70;;
19509;SDS011;9896;42.486;26.506;2023-08-24T05:29:23;15.77;;;10.73;;
19509;SDS011;9896;42.486;26.506;2023-08-24T05:31:49;16.13;;;10.13;;
19509;SDS011;9896;42.486;26.506;2023-08-24T05:34:14;14.73;;;10.50;;
19509;SDS011;9896;42.486;26.506;2023-08-24T05:36:40;16.67;;;10.53;;
19509;SDS011;9896;42.486;26.506;2023-08-24T05:39:05;13.13;;;10.50;;
19509;SDS011;9896;42.486;26.506;2023-08-24T05:41:30;13.13;;;9.75;;
19509;SDS011;9896;42.486;26.506;2023-08-24T05:43:56;12.30;;;9.80;;
19509;SDS011;9896;42.486;26.506;2023-08-24T05:46:22;15.15;;;9.68;;
19509;SDS011;9896;42.486;26.506;2023-08-24T05:48:48;15.00;;;9.70;;
19509;SDS011;9896;42.486;26.506;2023-08-24T05:51:13;12.20;;;9.53;;
19509;SDS011;9896;42.486;26.506;2023-08-24T05:53:39;12.43;;;9.80;;
19509;SDS011;9896;42.486;26.506;2023-08-24T05:56:05;17.00;;;9.87;;
19509;SDS011;9896;42.486;26.506;2023-08-24T05:58:31;12.38;;;9.52;;
19509;SDS011;9896;42.486;26.506;2023-08-24T06:00:57;13.68;;;9.43;;
19509;SDS011;9896;42.486;26.506;2023-08-24T06:03:22;14.00;;;9.50;;
19509;SDS011;9896;42.486;26.506;2023-08-24T06:05:48;14.68;;;11.00;;
19509;SDS011;9896;42.486;26.506;2023-08-24T06:08:13;14.82;;;10.65;;
19509;SDS011;9896;42.486;26.506;2023-08-24T06:10:38;16.25;;;10.80;;
19509;SDS011;9896;42.486;26.506;2023-08-24T06:13:04;16.02;;;10.82;;
19509;SDS011;9896;42.486;26.506;2023-08-24T06:15:29;14.13;;;10.57;;
19509;SDS011;9896;42.486;26.506;2023-08-24T06:17:55;20.38;;;11.13;;
19509;SDS011;9896;42.486;26.506;2023-08-24T06:20:20;13.70;;;10.18;;
19509;SDS011;9896;42.486;26.506;2023-08-24T06:22:46;14.52;;;10.82;;
19509;SDS011;9896;42.486;26.506;2023-08-24T06:25:11;13.23;;;10.38;;
19509;SDS011;9896;42.486;26.506;2023-08-24T06:27:36;12.88;;;9.80;;
19509;SDS011;9896;42.486;26.506;2023-08-24T06:30:02;16.23;;;10.50;;
19509;SDS011;9896;42.486;26.506;2023-08-24T06:32:28;12.20;;;9.48;;
19509;SDS011;9896;42.486;26.506;2023-08-24T06:34:54;14.55;;;9.90;;
19509;SDS011;9896;42.486;26.506;2023-08-24T06:37:20;12.45;;;8.27;;
19509;SDS011;9896;42.486;26.506;2023-08-24T06:39:46;14.40;;;9.48;;
19509;SDS011;9896;42.486;26.506;2023-08-24T06:42:11;10.13;;;8.40;;
19509;SDS011;9896;42.486;26.506;2023-08-24T06:44:36;10.30;;;8.15;;
19509;SDS011;9896;42.486;26.506;2023-08-24T06:47:02;14.80;;;8.15;;
19509;SDS011;9896;42.486;26.506;2023-08-24T06:49:28;10.90;;;8.18;;
19509;SDS011;9896;42.486;26.506;2023-08-24T06:51:53;12.77;;;7.78;;
19509;SDS011;9896;42.486;26.506;2023-08-24T06:54:19;9.55;;;8.55;;
19509;SDS011;9896;42.486;26.506;2023-08-24T06:56:44;11.13;;;8.30;;
19509;SDS011;9896;42.486;26.506;2023-08-24T06:59:10;11.20;;;8.75;;
19509;SDS011;9896;42.486;26.506;2023-08-24T07:01:38;10.07;;;8.60;;
19509;SDS011;9896;42.486;26.506;2023-08-24T07:04:03;10.68;;;8.90;;
19509;SDS011;9896;42.486;26.506;2023-08-24T07:06:29;9.40;;;7.88;;
19509;SDS011;9896;42.486;26.506;2023-08-24T07:08:54;14.40;;;8.77;;
19509;SDS011;9896;42.486;26.506;2023-08-24T07:11:19;11.48;;;8.75;;
19509;SDS011;9896;42.486;26.506;2023-08-24T07:13:45;11.50;;;8.82;;
19509;SDS011;9896;42.486;26.506;2023-08-24T07:16:11;11.20;;;9.48;;
19509;SDS011;9896;42.486;26.506;2023-08-24T07:18:36;9.23;;;8.23;;
19509;SDS011;9896;42.486;26.506;2023-08-24T07:21:02;11.90;;;8.85;;
19509;SDS011;9896;42.486;26.506;2023-08-24T07:23:27;13.25;;;9.52;;
19509;SDS011;9896;42.486;26.506;2023-08-24T07:25:53;12.32;;;8.43;;
19509;SDS011;9896;42.486;26.506;2023-08-24T07:28:19;10.05;;;8.73;;
19509;SDS011;9896;42.486;26.506;2023-08-24T07:30:44;9.93;;;8.13;;
19509;SDS011;9896;42.486;26.506;2023-08-24T07:33:10;11.05;;;8.45;;
19509;SDS011;9896;42.486;26.506;2023-08-24T07:35:35;10.27;;;7.82;;
19509;SDS011;9896;42.486;26.506;2023-08-24T07:38:00;8.98;;;7.88;;
19509;SDS011;9896;42.486;26.506;2023-08-24T07:40:26;9.38;;;7.80;;
19509;SDS011;9896;42.486;26.506;2023-08-24T07:42:54;12.63;;;7.90;;
19509;SDS011;9896;42.486;26.506;2023-08-24T07:45:20;9.80;;;7.45;;
19509;SDS011;9896;42.486;26.506;2023-08-24T07:47:45;10.18;;;8.10;;
19509;SDS011;9896;42.486;26.506;2023-08-24T07:50:11;10.13;;;8.38;;
19509;SDS011;9896;42.486;26.506;2023-08-24T07:52:37;10.45;;;7.30;;
19509;SDS011;9896;42.486;26.506;2023-08-24T07:55:03;11.73;;;8.25;;
19509;SDS011;9896;42.486;26.506;2023-08-24T07:57:29;10.57;;;7.78;;
19509;SDS011;9896;42.486;26.506;2023-08-24T07:59:57;9.13;;;7.97;;
19509;SDS011;9896;42.486;26.506;2023-08-24T08:02:22;9.77;;;8.77;;
19509;SDS011;9896;42.486;26.506;2023-08-24T08:04:47;9.15;;;8.15;;
19509;SDS011;9896;42.486;26.506;2023-08-24T08:07:13;8.02;;;7.03;;
19509;SDS011;9896;42.486;26.506;2023-08-24T08:09:38;8.88;;;7.63;;
19509;SDS011;9896;42.486;26.506;2023-08-24T08:12:04;11.30;;;8.23;;
19509;SDS011;9896;42.486;26.506;2023-08-24T08:14:30;10.77;;;9.10;;
19509;SDS011;9896;42.486;26.506;2023-08-24T08:16:58;10.52;;;7.68;;
19509;SDS011;9896;42.486;26.506;2023-08-24T08:19:23;9.68;;;7.88;;
19509;SDS011;9896;42.486;26.506;2023-08-24T08:21:53;9.18;;;8.05;;
19509;SDS011;9896;42.486;26.506;2023-08-24T08:24:18;9.95;;;8.43;;
19509;SDS011;9896;42.486;26.506;2023-08-24T08:26:44;9.05;;;7.88;;
19509;SDS011;9896;42.486;26.506;2023-08-24T08:29:09;9.55;;;7.82;;
19509;SDS011;9896;42.486;26.506;2023-08-24T08:31:34;9.27;;;7.90;;
19509;SDS011;9896;42.486;26.506;2023-08-24T08:34:00;10.93;;;8.05;;
19509;SDS011;9896;42.486;26.506;2023-08-24T08:36:26;10.25;;;7.55;;
19509;SDS011;9896;42.486;26.506;2023-08-24T08:38:51;10.18;;;7.30;;
19509;SDS011;9896;42.486;26.506;2023-08-24T08:41:17;8.90;;;8.00;;
19509;SDS011;9896;42.486;26.506;2023-08-24T08:43:46;9.63;;;8.02;;
19509;SDS011;9896;42.486;26.506;2023-08-24T08:46:12;9.00;;;6.97;;
19509;SDS011;9896;42.486;26.506;2023-08-24T08:48:40;8.10;;;7.20;;
19509;SDS011;9896;42.486;26.506;2023-08-24T08:51:06;12.27;;;7.53;;
19509;SDS011;9896;42.486;26.506;2023-08-24T08:53:32;9.13;;;7.00;;
19509;SDS011;9896;42.486;26.506;2023-08-24T08:55:57;10.23;;;6.93;;
19509;SDS011;9896;42.486;26.506;2023-08-24T08:58:28;7.63;;;6.50;;
19509;SDS011;9896;42.486;26.506;2023-08-24T09:00:54;9.75;;;6.88;;
19509;SDS011;9896;42.486;26.506;2023-08-24T09:03:20;10.48;;;7.05;;
19509;SDS011;9896;42.486;26.506;2023-08-24T09:05:46;8.85;;;7.45;;
19509;SDS011;9896;42.486;26.506;2023-08-24T09:08:13;9.30;;;7.07;;
19509;SDS011;9896;42.486;26.506;2023-08-24T09:10:39;9.43;;;7.57;;
19509;SDS011;9896;42.486;26.506;2023-08-24T09:13:05;12.15;;;7.00;;
19509;SDS011;9896;42.486;26.506;2023-08-24T09:15:34;8.27;;;6.60;;
19509;SDS011;9896;42.486;26.506;2023-08-24T09:17:59;8.20;;;6.40;;
19509;SDS011;9896;42.486;26.506;2023-08-24T09:20:27;9.38;;;6.85;;
19509;SDS011;9896;42.486;26.506;2023-08-24T09:22:52;8.73;;;6.57;;
19509;SDS011;9896;42.486;26.506;2023-08-24T09:25:20;8.75;;;6.78;;
19509;SDS011;9896;42.486;26.506;2023-08-24T09:27:45;7.53;;;6.72;;
19509;SDS011;9896;42.486;26.506;2023-08-24T09:30:10;8.10;;;6.10;;
19509;SDS011;9896;42.486;26.506;2023-08-24T09:32:36;8.98;;;6.80;;
19509;SDS011;9896;42.486;26.506;2023-08-24T09:35:07;7.60;;;6.57;;
19509;SDS011;9896;42.486;26.506;2023-08-24T09:37:33;6.75;;;6.03;;
19509;SDS011;9896;42.486;26.506;2023-08-24T09:40:05;7.30;;;6.50;;
19509;SDS011;9896;42.486;26.506;2023-08-24T09:42:37;7.15;;;6.03;;
19509;SDS011;9896;42.486;26.506;2023-08-24T09:45:04;7.75;;;6.45;;
19509;SDS011;9896;42.486;26.506;2023-08-24T09:47:33;7.25;;;6.20;;
19509;SDS011;9896;42.486;26.506;2023-08-24T09:49:59;8.93;;;6.97;;
19509;SDS011;9896;42.486;26.506;2023-08-24T09:52:24;7.90;;;6.57;;
19509;SDS011;9896;42.486;26.506;2023-08-24T09:54:53;7.07;;;6.07;;
19509;SDS011;9896;42.486;26.506;2023-08-24T09:57:19;13.38;;;7.15;;
19509;SDS011;9896;42.486;26.506;2023-08-24T09:59:44;8.30;;;6.25;;
19509;SDS011;9896;42.486;26.506;2023-08-24T10:02:15;8.18;;;5.80;;
19509;SDS011;9896;42.486;26.506;2023-08-24T10:04:41;6.90;;;5.80;;
19509;SDS011;9896;42.486;26.506;2023-08-24T10:07:11;7.85;;;6.10;;
19509;SDS011;9896;42.486;26.506;2023-08-24T10:12:08;7.35;;;6.35;;
19509;SDS011;9896;42.486;26.506;2023-08-24T10:16:59;7.75;;;6.20;;
19509;SDS011;9896;42.486;26.506;2023-08-24T10:19:25;13.65;;;6.30;;
19509;SDS011;9896;42.486;26.506;2023-08-24T10:21:52;6.50;;;5.90;;
19509;SDS011;9896;42.486;26.506;2023-08-24T10:24:18;6.85;;;6.22;;
19509;SDS011;9896;42.486;26.506;2023-08-24T10:26:46;7.72;;;6.20;;
19509;SDS011;9896;42.486;26.506;2023-08-24T10:29:11;10.43;;;6.32;;
19509;SDS011;9896;42.486;26.506;2023-08-24T10:31:37;9.73;;;6.50;;
19509;SDS011;9896;42.486;26.506;2023-08-24T10:34:03;6.93;;;5.70;;
19509;SDS011;9896;42.486;26.506;2023-08-24T10:36:30;7.07;;;6.30;;
19509;SDS011;9896;42.486;26.506;2023-08-24T10:38:56;10.85;;;6.60;;
19509;SDS011;9896;42.486;26.506;2023-08-24T10:41:27;7.72;;;6.70;;
19509;SDS011;9896;42.486;26.506;2023-08-24T10:43:52;7.07;;;6.38;;
19509;SDS011;9896;42.486;26.506;2023-08-24T10:46:28;9.30;;;6.25;;
19509;SDS011;9896;42.486;26.506;2023-08-24T10:48:59;7.22;;;6.35;;
19509;SDS011;9896;42.486;26.506;2023-08-24T10:51:25;7.95;;;6.30;;
19509;SDS011;9896;42.486;26.506;2023-08-24T10:53:56;10.75;;;6.47;;
19509;SDS011;9896;42.486;26.506;2023-08-24T10:56:23;7.45;;;6.45;;
19509;SDS011;9896;42.486;26.506;2023-08-24T10:59:09;7.00;;;6.30;;
19509;SDS011;9896;42.486;26.506;2023-08-24T11:01:35;7.15;;;6.40;;
19509;SDS011;9896;42.486;26.506;2023-08-24T11:04:03;10.65;;;6.55;;
19509;SDS011;9896;42.486;26.506;2023-08-24T11:06:30;6.97;;;6.28;;
19509;SDS011;9896;42.486;26.506;2023-08-24T11:09:08;7.45;;;6.13;;
19509;SDS011;9896;42.486;26.506;2023-08-24T11:11:41;6.15;;;5.55;;
19509;SDS011;9896;42.486;26.506;2023-08-24T11:14:13;7.63;;;6.45;;
19509;SDS011;9896;42.486;26.506;2023-08-24T11:16:41;6.43;;;5.82;;
19509;SDS011;9896;42.486;26.506;2023-08-24T11:19:06;7.25;;;6.13;;
19509;SDS011;9896;42.486;26.506;2023-08-24T11:21:33;10.40;;;6.60;;
19509;SDS011;9896;42.486;26.506;2023-08-24T11:23:59;7.07;;;6.38;;
19509;SDS011;9896;42.486;26.506;2023-08-24T11:26:24;21.10;;;13.90;;
19509;SDS011;9896;42.486;26.506;2023-08-24T11:28:52;8.68;;;6.78;;
19509;SDS011;9896;42.486;26.506;2023-08-24T11:31:18;7.72;;;6.85;;
19509;SDS011;9896;42.486;26.506;2023-08-24T11:33:43;6.93;;;6.15;;
19509;SDS011;9896;42.486;26.506;2023-08-24T11:36:09;6.72;;;5.90;;
19509;SDS011;9896;42.486;26.506;2023-08-24T11:38:43;6.65;;;5.78;;
19509;SDS011;9896;42.486;26.506;2023-08-24T11:43:38;7.40;;;6.10;;
19509;SDS011;9896;42.486;26.506;2023-08-24T11:46:03;10.60;;;6.15;;
19509;SDS011;9896;42.486;26.506;2023-08-24T11:48:29;7.30;;;6.30;;
19509;SDS011;9896;42.486;26.506;2023-08-24T11:50:57;8.57;;;6.22;;
19509;SDS011;9896;42.486;26.506;2023-08-24T11:53:22;8.63;;;6.07;;
19509;SDS011;9896;42.486;26.506;2023-08-24T11:55:49;7.40;;;6.38;;
19509;SDS011;9896;42.486;26.506;2023-08-24T11:58:15;7.10;;;6.40;;
19509;SDS011;9896;42.486;26.506;2023-08-24T12:00:41;8.98;;;6.03;;
19509;SDS011;9896;42.486;26.506;2023-08-24T12:03:07;10.93;;;7.10;;
19509;SDS011;9896;42.486;26.506;2023-08-24T12:05:32;7.80;;;6.03;;
19509;SDS011;9896;42.486;26.506;2023-08-24T12:07:58;9.18;;;6.40;;
19509;SDS011;9896;42.486;26.506;2023-08-24T12:10:23;9.05;;;6.65;;
19509;SDS011;9896;42.486;26.506;2023-08-24T12:12:48;7.93;;;6.45;;
19509;SDS011;9896;42.486;26.506;2023-08-24T12:15:20;7.95;;;6.80;;
19509;SDS011;9896;42.486;26.506;2023-08-24T12:17:47;9.57;;;7.15;;
19509;SDS011;9896;42.486;26.506;2023-08-24T12:20:22;7.63;;;6.13;;
19509;SDS011;9896;42.486;26.506;2023-08-24T12:22:51;11.05;;;6.88;;
19509;SDS011;9896;42.486;26.506;2023-08-24T12:25:17;8.38;;;6.63;;
19509;SDS011;9896;42.486;26.506;2023-08-24T12:27:42;7.72;;;6.93;;
19509;SDS011;9896;42.486;26.506;2023-08-24T12:30:07;9.68;;;7.07;;
19509;SDS011;9896;42.486;26.506;2023-08-24T12:32:45;8.25;;;6.82;;
19509;SDS011;9896;42.486;26.506;2023-08-24T12:35:11;9.82;;;7.20;;
19509;SDS011;9896;42.486;26.506;2023-08-24T12:37:37;9.57;;;6.25;;
19509;SDS011;9896;42.486;26.506;2023-08-24T12:40:03;8.98;;;6.22;;
19509;SDS011;9896;42.486;26.506;2023-08-24T12:42:31;7.97;;;6.20;;
19509;SDS011;9896;42.486;26.506;2023-08-24T12:44:56;9.43;;;6.70;;
19509;SDS011;9896;42.486;26.506;2023-08-24T12:47:21;8.68;;;7.32;;
19509;SDS011;9896;42.486;26.506;2023-08-24T12:49:47;10.38;;;7.03;;
19509;SDS011;9896;42.486;26.506;2023-08-24T12:52:12;6.85;;;6.13;;
19509;SDS011;9896;42.486;26.506;2023-08-24T12:54:38;8.77;;;6.25;;
19509;SDS011;9896;42.486;26.506;2023-08-24T12:57:03;7.20;;;6.35;;
19509;SDS011;9896;42.486;26.506;2023-08-24T12:59:29;7.13;;;5.93;;
19509;SDS011;9896;42.486;26.506;2023-08-24T13:01:54;8.10;;;6.55;;
19509;SDS011;9896;42.486;26.506;2023-08-24T13:04:19;9.18;;;6.78;;
19509;SDS011;9896;42.486;26.506;2023-08-24T13:06:45;7.63;;;6.50;;
19509;SDS011;9896;42.486;26.506;2023-08-24T13:09:10;8.20;;;6.00;;
19509;SDS011;9896;42.486;26.506;2023-08-24T13:11:37;8.13;;;6.20;;
19509;SDS011;9896;42.486;26.506;2023-08-24T13:14:02;7.22;;;6.53;;
19509;SDS011;9896;42.486;26.506;2023-08-24T13:16:28;7.55;;;6.18;;
19509;SDS011;9896;42.486;26.506;2023-08-24T13:18:53;7.70;;;6.40;;
19509;SDS011;9896;42.486;26.506;2023-08-24T13:21:19;6.60;;;5.90;;
19509;SDS011;9896;42.486;26.506;2023-08-24T13:23:45;7.25;;;6.40;;
19509;SDS011;9896;42.486;26.506;2023-08-24T13:26:17;7.88;;;6.05;;
19509;SDS011;9896;42.486;26.506;2023-08-24T13:28:43;7.40;;;6.28;;
19509;SDS011;9896;42.486;26.506;2023-08-24T13:31:09;7.80;;;6.85;;
19509;SDS011;9896;42.486;26.506;2023-08-24T13:33:34;12.88;;;5.97;;
19509;SDS011;9896;42.486;26.506;2023-08-24T13:36:00;16.65;;;5.72;;
19509;SDS011;9896;42.486;26.506;2023-08-24T13:38:27;27.80;;;6.30;;
19509;SDS011;9896;42.486;26.506;2023-08-24T13:40:52;15.60;;;5.72;;
19509;SDS011;9896;42.486;26.506;2023-08-24T13:43:18;11.15;;;5.40;;
19509;SDS011;9896;42.486;26.506;2023-08-24T13:45:45;9.15;;;5.97;;
19509;SDS011;9896;42.486;26.506;2023-08-24T13:48:10;9.73;;;5.13;;
19509;SDS011;9896;42.486;26.506;2023-08-24T13:50:36;8.52;;;6.18;;
19509;SDS011;9896;42.486;26.506;2023-08-24T13:53:01;12.13;;;5.97;;
19509;SDS011;9896;42.486;26.506;2023-08-24T13:55:26;14.90;;;6.18;;
19509;SDS011;9896;42.486;26.506;2023-08-24T13:57:52;23.45;;;5.88;;
19509;SDS011;9896;42.486;26.506;2023-08-24T14:00:17;8.65;;;5.72;;
19509;SDS011;9896;42.486;26.506;2023-08-24T14:02:43;7.38;;;5.15;;
19509;SDS011;9896;42.486;26.506;2023-08-24T14:05:09;8.73;;;5.60;;
19509;SDS011;9896;42.486;26.506;2023-08-24T14:07:36;7.97;;;5.47;;
19509;SDS011;9896;42.486;26.506;2023-08-24T14:10:02;7.95;;;5.82;;
19509;SDS011;9896;42.486;26.506;2023-08-24T14:12:27;7.82;;;6.30;;
19509;SDS011;9896;42.486;26.506;2023-08-24T14:14:53;9.35;;;5.50;;
19509;SDS011;9896;42.486;26.506;2023-08-24T14:17:18;13.75;;;6.07;;
19509;SDS011;9896;42.486;26.506;2023-08-24T14:19:44;9.38;;;5.97;;
19509;SDS011;9896;42.486;26.506;2023-08-24T14:22:09;8.88;;;5.50;;
19509;SDS011;9896;42.486;26.506;2023-08-24T14:24:35;7.38;;;5.72;;
19509;SDS011;9896;42.486;26.506;2023-08-24T14:27:00;8.48;;;5.80;;
19509;SDS011;9896;42.486;26.506;2023-08-24T14:29:26;8.85;;;5.70;;
19509;SDS011;9896;42.486;26.506;2023-08-24T14:31:51;12.23;;;6.20;;
19509;SDS011;9896;42.486;26.506;2023-08-24T14:34:17;6.95;;;5.50;;
19509;SDS011;9896;42.486;26.506;2023-08-24T14:36:42;9.00;;;5.57;;
19509;SDS011;9896;42.486;26.506;2023-08-24T14:39:07;9.88;;;6.97;;
19509;SDS011;9896;42.486;26.506;2023-08-24T14:41:33;7.13;;;5.57;;
19509;SDS011;9896;42.486;26.506;2023-08-24T14:43:58;8.07;;;6.05;;
19509;SDS011;9896;42.486;26.506;2023-08-24T14:46:24;8.07;;;6.57;;